Time;durP1;ratioP1;P1;durP2;ratioP2;P2;SDS_P1;SDS_P2;PMS_P1;PMS_P2;Temp;Humidity;BMP_temperature;BMP_pressure;BME280_temperature;BME280_humidity;BME280_pressure;Samples;Min_cycle;Max_cycle;Signal;HPM_P1;HPM_P2
2022/03/06 07:17:27;;;;;;;57.35;23.85;;;6.30;83.60;;;;;;5071838;28;20412;-80
2022/03/06 07:19:52;;;;;;;57.50;23.33;;;6.50;82.70;;;;;;5073003;28;20055;-77
2022/03/06 07:22:18;;;;;;;53.40;20.67;;;6.80;81.90;;;;;;5071108;28;20056;-77
2022/03/06 07:24:44;;;;;;;51.22;22.25;;;7.20;81.30;;;;;;5087803;28;20533;-77
2022/03/06 07:27:09;;;;;;;57.92;22.92;;;7.40;79.90;;;;;;5078617;28;20021;-76
2022/03/06 07:29:35;;;;;;;52.05;22.90;;;7.50;79.00;;;;;;5052265;28;20052;-78
2022/03/06 07:32:01;;;;;;;54.10;20.75;;;7.70;78.10;;;;;;5050632;28;20061;-78
2022/03/06 07:34:26;;;;;;;54.00;22.40;;;7.70;76.70;;;;;;5051940;28;20090;-77
2022/03/06 07:36:52;;;;;;;54.45;21.25;;;7.60;77.20;;;;;;5052009;28;20040;-76
2022/03/06 07:39:17;;;;;;;57.45;22.35;;;7.70;77.20;;;;;;5050711;28;20083;-76
2022/03/06 07:41:43;;;;;;;59.38;23.38;;;7.80;76.70;;;;;;5060080;28;20071;-74
2022/03/06 07:44:09;;;;;;;52.80;21.30;;;7.70;76.40;;;;;;5069445;28;20063;-75
2022/03/06 07:46:34;;;;;;;47.65;21.80;;;7.80;76.80;;;;;;5071640;28;20021;-76
2022/03/06 07:49:00;;;;;;;63.45;26.88;;;7.80;76.60;;;;;;5066634;28;20087;-75
2022/03/06 07:51:26;;;;;;;54.42;22.42;;;8.00;76.50;;;;;;5068826;28;20025;-79
2022/03/06 07:55:41;;;;;;;63.22;25.80;;;8.00;75.80;;;;;;5056250;28;20395;-78
2022/03/06 07:58:07;;;;;;;52.33;23.10;;;7.80;76.00;;;;;;5053920;28;20068;-77
2022/03/06 08:00:32;;;;;;;58.13;21.88;;;7.60;75.50;;;;;;5054443;28;20092;-77
2022/03/06 08:02:58;;;;;;;53.97;23.23;;;7.60;76.50;;;;;;5054384;28;20530;-78
2022/03/06 08:05:24;;;;;;;53.17;23.58;;;7.80;76.40;;;;;;5060674;28;20407;-75
2022/03/06 08:07:49;;;;;;;65.13;25.83;;;7.80;75.90;;;;;;5058404;28;20521;-75
2022/03/06 08:10:15;;;;;;;57.42;22.33;;;7.90;74.50;;;;;;5059940;28;20029;-74
2022/03/06 08:12:41;;;;;;;53.90;21.33;;;8.00;75.00;;;;;;5050925;28;20033;-74
2022/03/06 08:15:08;;;;;;;46.50;20.63;;;8.20;74.20;;;;;;5053890;28;20036;-76
2022/03/06 08:17:35;;;;;;;52.85;21.50;;;8.20;73.80;;;;;;5061572;28;20530;-74
2022/03/06 08:20:01;;;;;;;56.35;22.30;;;8.10;73.70;;;;;;5061995;28;20025;-77
2022/03/06 08:22:27;;;;;;;50.97;22.50;;;8.20;74.30;;;;;;5057768;28;20052;-73
2022/03/06 08:24:54;;;;;;;44.15;20.95;;;8.10;73.30;;;;;;5063100;28;20051;-75
2022/03/06 08:27:21;;;;;;;45.40;18.83;;;8.00;73.20;;;;;;5056205;28;20017;-74
2022/03/06 08:29:47;;;;;;;47.55;18.92;;;8.00;73.20;;;;;;5062537;28;20050;-74
2022/03/06 08:32:13;;;;;;;44.40;20.00;;;8.10;72.80;;;;;;5056675;28;20439;-75
2022/03/06 08:34:38;;;;;;;40.80;19.70;;;8.20;72.40;;;;;;5061875;28;20072;-79
2022/03/06 08:37:05;;;;;;;45.78;21.23;;;8.10;72.40;;;;;;5055794;28;20030;-76
2022/03/06 08:39:30;;;;;;;42.72;16.27;;;8.00;72.20;;;;;;5042990;28;20067;-77
2022/03/06 08:41:56;;;;;;;42.55;19.52;;;8.10;72.00;;;;;;5038416;28;20077;-77
2022/03/06 08:44:22;;;;;;;46.47;19.42;;;8.20;71.50;;;;;;5033189;28;20826;-77
2022/03/06 08:46:48;;;;;;;38.45;15.90;;;8.20;70.60;;;;;;5048564;28;20030;-76
2022/03/06 08:49:14;;;;;;;38.13;16.77;;;8.10;70.00;;;;;;5038303;28;20029;-76
2022/03/06 08:51:39;;;;;;;33.53;14.90;;;8.20;70.70;;;;;;5034450;28;20018;-77
2022/03/06 08:54:05;;;;;;;34.80;14.35;;;8.20;68.50;;;;;;5040078;28;20537;-74
2022/03/06 08:56:31;;;;;;;29.83;14.35;;;8.20;68.80;;;;;;5040136;28;20554;-74
2022/03/06 08:58:57;;;;;;;32.13;14.10;;;8.20;68.80;;;;;;5048785;28;20053;-75
2022/03/06 09:01:23;;;;;;;25.65;12.82;;;8.10;68.40;;;;;;5052544;28;20024;-75
2022/03/06 09:03:48;;;;;;;29.23;14.35;;;8.10;68.50;;;;;;5045247;28;20052;-74
2022/03/06 09:06:14;;;;;;;25.65;12.07;;;8.10;68.10;;;;;;5039784;28;20072;-74
2022/03/06 09:08:40;;;;;;;20.45;11.65;;;8.30;67.30;;;;;;5038071;28;20052;-74
2022/03/06 09:11:06;;;;;;;31.35;13.02;;;8.20;70.40;;;;;;5032893;28;20034;-74
2022/03/06 09:13:33;;;;;;;30.92;13.43;;;8.10;69.20;;;;;;5036491;28;20025;-74
2022/03/06 09:15:59;;;;;;;29.60;12.32;;;8.00;68.70;;;;;;5036473;28;20089;-74
2022/03/06 09:18:25;;;;;;;24.50;12.48;;;8.00;69.70;;;;;;5052946;28;20023;-75
2022/03/06 09:20:50;;;;;;;27.38;13.23;;;8.20;68.40;;;;;;5034704;28;20030;-74
2022/03/06 09:23:17;;;;;;;29.08;15.13;;;8.20;67.50;;;;;;5024361;28;20009;-74
2022/03/06 09:25:42;;;;;;;26.52;12.75;;;8.30;67.50;;;;;;5031299;28;20031;-73
2022/03/06 09:28:08;;;;;;;28.27;15.02;;;8.50;67.60;;;;;;5046227;28;20108;-73
2022/03/06 09:30:34;;;;;;;28.98;11.23;;;8.60;66.00;;;;;;5044518;28;20477;-73
2022/03/06 09:33:00;;;;;;;23.83;12.10;;;8.70;65.20;;;;;;5046287;28;20025;-73
2022/03/06 09:35:26;;;;;;;19.88;10.85;;;8.70;63.60;;;;;;5043451;28;20048;-73
2022/03/06 09:37:52;;;;;;;21.35;10.75;;;8.70;64.10;;;;;;5042405;28;20049;-73
2022/03/06 09:40:19;;;;;;;22.02;11.25;;;8.60;62.70;;;;;;5043227;28;20464;-73
2022/03/06 09:42:44;;;;;;;23.75;11.48;;;8.60;62.50;;;;;;5043069;28;20021;-73
2022/03/06 09:45:12;;;;;;;20.70;10.50;;;8.60;61.50;;;;;;5044433;28;20032;-74
2022/03/06 09:47:40;;;;;;;27.23;10.90;;;8.60;61.80;;;;;;5038538;28;20032;-74
2022/03/06 09:50:08;;;;;;;27.05;11.10;;;8.70;61.30;;;;;;5046307;28;20040;-74
2022/03/06 09:52:33;;;;;;;26.48;12.13;;;8.70;59.50;;;;;;5038712;28;20025;-74
2022/03/06 09:54:59;;;;;;;24.83;11.85;;;8.70;59.70;;;;;;5044829;28;20049;-74
2022/03/06 09:57:25;;;;;;;27.08;10.95;;;8.50;58.00;;;;;;5044269;28;20029;-74
2022/03/06 09:59:51;;;;;;;21.00;9.65;;;8.30;58.10;;;;;;5037849;28;20035;-74
2022/03/06 10:02:17;;;;;;;21.20;9.85;;;8.20;58.10;;;;;;5030530;28;20030;-75
2022/03/06 10:04:46;;;;;;;19.88;10.15;;;8.20;57.70;;;;;;5047457;28;20026;-74
2022/03/06 10:07:13;;;;;;;16.88;9.15;;;8.10;57.90;;;;;;5033392;28;20049;-73
2022/03/06 10:09:55;;;;;;;20.63;10.15;;;8.20;57.00;;;;;;5036624;28;20378;-74
2022/03/06 10:12:29;;;;;;;26.23;10.32;;;8.20;56.10;;;;;;5034574;28;20117;-73
2022/03/06 10:15:06;;;;;;;23.20;10.48;;;8.20;56.10;;;;;;5042324;28;20040;-75
2022/03/06 10:17:34;;;;;;;18.80;9.35;;;8.20;55.80;;;;;;5035114;28;20048;-73
2022/03/06 10:20:03;;;;;;;22.42;10.65;;;8.20;55.90;;;;;;5017594;28;20400;-79
2022/03/06 10:22:30;;;;;;;21.13;9.95;;;8.30;56.70;;;;;;5031386;28;20018;-74
2022/03/06 10:25:20;;;;;;;20.83;10.25;;;8.30;57.00;;;;;;5050001;28;20138;-75
2022/03/06 10:27:53;;;;;;;20.42;11.45;;;8.50;56.50;;;;;;5015079;28;20054;-74
2022/03/06 10:30:23;;;;;;;26.60;11.05;;;8.50;56.50;;;;;;5015845;28;20030;-74
2022/03/06 10:32:48;;;;;;;23.33;10.70;;;8.40;55.70;;;;;;5015888;28;20030;-74
2022/03/06 10:35:14;;;;;;;28.52;14.52;;;8.30;57.00;;;;;;5016660;28;20046;-74
2022/03/06 10:37:40;;;;;;;19.10;11.02;;;8.20;56.30;;;;;;5025942;28;20029;-75
2022/03/06 10:40:07;;;;;;;22.83;11.70;;;8.30;56.10;;;;;;5035788;28;20030;-75
2022/03/06 10:42:33;;;;;;;27.83;14.45;;;8.40;56.50;;;;;;5036111;28;20104;-74
2022/03/06 10:44:59;;;;;;;28.95;14.15;;;8.40;56.10;;;;;;5015206;28;20068;-74
2022/03/06 10:47:24;;;;;;;24.10;13.38;;;8.50;56.70;;;;;;5015990;28;20037;-75
2022/03/06 10:50:01;;;;;;;36.00;17.05;;;8.60;56.10;;;;;;5016503;28;20168;-74
2022/03/06 10:52:27;;;;;;;24.60;13.35;;;8.50;56.40;;;;;;5016152;28;20034;-75
2022/03/06 10:54:57;;;;;;;32.72;15.57;;;8.50;56.00;;;;;;5015906;28;20042;-74
2022/03/06 10:57:24;;;;;;;28.17;13.93;;;8.60;56.50;;;;;;5016844;28;20071;-74
2022/03/06 10:59:51;;;;;;;27.17;12.60;;;8.60;55.50;;;;;;5031944;28;20029;-74
2022/03/06 11:02:17;;;;;;;31.92;14.05;;;8.70;55.10;;;;;;5035787;28;20554;-74
2022/03/06 11:04:47;;;;;;;33.05;15.93;;;8.80;55.60;;;;;;5035438;28;20053;-74
2022/03/06 11:07:13;;;;;;;24.98;13.48;;;9.00;55.50;;;;;;5033075;28;20029;-74
2022/03/06 11:09:39;;;;;;;28.73;15.13;;;9.20;54.80;;;;;;5035879;28;20033;-74
2022/03/06 11:12:06;;;;;;;29.65;14.93;;;9.40;53.60;;;;;;5035530;28;20036;-74
2022/03/06 11:14:32;;;;;;;24.65;12.95;;;9.50;54.30;;;;;;5035597;28;20041;-74
2022/03/06 11:16:58;;;;;;;25.52;14.07;;;9.50;53.50;;;;;;5033374;28;20022;-74
2022/03/06 11:19:26;;;;;;;35.60;17.48;;;9.70;53.70;;;;;;5034304;28;20033;-74
2022/03/06 11:22:00;;;;;;;34.22;16.65;;;9.50;53.20;;;;;;5035655;28;20522;-74
2022/03/06 11:24:28;;;;;;;30.08;16.10;;;9.60;51.40;;;;;;5043730;28;20120;-74
2022/03/06 11:27:15;;;;;;;34.50;17.10;;;9.60;51.40;;;;;;5055211;28;20025;-74
2022/03/06 11:30:03;;;;;;;38.25;18.73;;;9.60;51.00;;;;;;5035863;28;20037;-74
2022/03/06 11:32:35;;;;;;;34.50;16.52;;;9.70;51.50;;;;;;5032699;28;20025;-74
2022/03/06 11:35:17;;;;;;;33.47;17.00;;;9.90;51.00;;;;;;5035283;28;20030;-74
2022/03/06 11:37:55;;;;;;;43.70;24.38;;;10.40;51.00;;;;;;5035608;28;20029;-74
2022/03/06 11:40:44;;;;;;;35.83;17.63;;;10.60;49.30;;;;;;5033916;28;20503;-74
2022/03/06 11:43:12;;;;;;;39.13;18.55;;;11.10;50.20;;;;;;5032567;28;20587;-74
2022/03/06 11:46:04;;;;;;;36.97;18.55;;;11.50;48.60;;;;;;5033779;28;20029;-74
2022/03/06 11:48:32;;;;;;;41.42;22.95;;;11.40;47.60;;;;;;5032629;28;20638;-74
2022/03/06 11:51:22;;;;;;;46.58;24.17;;;11.10;47.70;;;;;;5033912;28;20032;-74
2022/03/06 11:54:08;;;;;;;36.28;21.15;;;10.90;47.50;;;;;;5017290;28;20046;-74
2022/03/06 11:56:40;;;;;;;41.55;20.42;;;11.20;47.30;;;;;;5015393;28;20041;-75
2022/03/06 11:59:17;;;;;;;54.92;28.27;;;11.30;48.60;;;;;;5025490;28;20032;-74
2022/03/06 12:01:44;;;;;;;49.08;23.65;;;11.20;47.10;;;;;;5033796;28;20022;-75
2022/03/06 12:04:12;;;;;;;41.88;22.42;;;11.60;48.10;;;;;;5015440;28;20061;-75
2022/03/06 12:06:39;;;;;;;47.58;23.92;;;11.50;46.30;;;;;;5015443;28;20037;-74
2022/03/06 12:09:21;;;;;;;43.53;24.42;;;10.90;48.50;;;;;;5046777;28;20029;-74
2022/03/06 12:11:49;;;;;;;46.17;25.08;;;11.10;48.60;;;;;;5026505;28;20029;-74
2022/03/06 12:14:21;;;;;;;44.10;23.73;;;11.20;48.60;;;;;;5034971;28;20060;-74
2022/03/06 12:17:02;;;;;;;48.90;25.42;;;11.50;48.30;;;;;;5035056;28;20028;-74
2022/03/06 12:19:32;;;;;;;46.38;23.83;;;11.40;49.40;;;;;;5021964;28;20040;-74
2022/03/06 12:22:22;;;;;;;48.33;25.63;;;11.70;47.50;;;;;;5014924;28;20061;-75
2022/03/06 12:25:08;;;;;;;42.28;24.00;;;11.40;48.00;;;;;;5022442;28;20042;-74
2022/03/06 12:27:37;;;;;;;43.17;23.42;;;11.70;47.10;;;;;;5014601;28;20034;-74
2022/03/06 12:30:06;;;;;;;48.42;25.85;;;11.90;48.10;;;;;;5015103;28;20036;-74
2022/03/06 12:32:40;;;;;;;41.75;22.95;;;12.00;45.90;;;;;;5046516;28;20037;-74
2022/03/06 12:35:14;;;;;;;51.42;27.10;;;12.00;46.60;;;;;;5015294;28;20034;-74
2022/03/06 12:37:51;;;;;;;53.38;28.45;;;12.00;46.90;;;;;;5014948;28;20101;-74
2022/03/06 12:40:25;;;;;;;50.58;26.60;;;12.00;47.40;;;;;;5015146;28;20097;-74
2022/03/06 12:43:02;;;;;;;46.92;25.45;;;12.00;45.20;;;;;;5018668;28;20029;-74
2022/03/06 12:45:28;;;;;;;47.60;25.40;;;12.10;46.20;;;;;;5018709;28;20030;-74
2022/03/06 12:47:54;;;;;;;47.47;26.17;;;11.80;46.50;;;;;;5021965;28;20029;-74
2022/03/06 12:50:22;;;;;;;50.90;25.60;;;12.00;47.30;;;;;;5038508;28;20031;-74
2022/03/06 12:52:49;;;;;;;46.47;25.13;;;11.80;45.30;;;;;;5038359;28;20079;-74
2022/03/06 12:55:17;;;;;;;51.72;26.40;;;11.90;46.20;;;;;;5038099;28;20041;-74
2022/03/06 12:57:48;;;;;;;48.83;26.40;;;12.00;46.10;;;;;;5036763;28;20032;-74
2022/03/06 13:00:17;;;;;;;43.17;24.83;;;11.90;45.20;;;;;;5038421;28;20037;-74
2022/03/06 13:03:07;;;;;;;47.58;26.70;;;12.00;44.70;;;;;;5035845;28;20056;-74
2022/03/06 13:05:35;;;;;;;45.90;25.17;;;12.10;44.20;;;;;;5018488;28;20034;-74
2022/03/06 13:08:00;;;;;;;40.30;22.85;;;11.90;44.00;;;;;;5018298;28;20041;-74
2022/03/06 13:10:27;;;;;;;47.95;25.02;;;11.70;42.80;;;;;;5018505;28;20034;-74
2022/03/06 13:12:55;;;;;;;43.47;23.88;;;11.50;44.00;;;;;;5027721;28;20045;-75
2022/03/06 13:15:22;;;;;;;47.40;25.15;;;11.50;43.60;;;;;;5016721;28;20030;-75
2022/03/06 13:17:47;;;;;;;44.17;24.85;;;11.70;43.60;;;;;;5018075;28;20022;-74
2022/03/06 13:20:16;;;;;;;42.42;24.90;;;11.60;43.60;;;;;;5023145;28;20032;-75
2022/03/06 13:22:42;;;;;;;46.55;25.58;;;11.70;44.40;;;;;;5037868;28;20025;-74
2022/03/06 13:25:10;;;;;;;48.03;25.13;;;11.80;44.00;;;;;;5036222;28;20034;-74
2022/03/06 13:27:37;;;;;;;48.08;26.38;;;12.10;44.10;;;;;;5037801;28;20040;-74
2022/03/06 13:30:15;;;;;;;49.63;26.98;;;12.40;44.30;;;;;;5037815;28;20110;-74
2022/03/06 13:32:48;;;;;;;51.45;27.52;;;12.60;43.90;;;;;;5019942;28;20045;-74
2022/03/06 13:35:40;;;;;;;46.97;27.45;;;12.80;43.80;;;;;;5016469;28;20056;-74
2022/03/06 13:38:12;;;;;;;54.58;30.85;;;12.50;44.60;;;;;;5018980;28;20492;-74
2022/03/06 13:40:41;;;;;;;51.08;27.83;;;12.50;45.10;;;;;;5037411;28;20040;-75
2022/03/06 13:43:07;;;;;;;47.67;26.90;;;12.50;44.80;;;;;;5036040;28;20828;-74
2022/03/06 13:45:34;;;;;;;47.80;25.85;;;12.50;46.00;;;;;;5034130;28;20065;-75
2022/03/06 13:48:03;;;;;;;49.03;26.52;;;12.40;45.10;;;;;;5017567;28;20032;-75
2022/03/06 13:50:41;;;;;;;48.00;26.60;;;12.20;45.20;;;;;;5015894;28;20081;-74
2022/03/06 13:53:09;;;;;;;41.80;24.13;;;12.20;46.10;;;;;;5028777;28;20113;-74
2022/03/06 13:55:37;;;;;;;38.33;22.02;;;12.10;44.10;;;;;;5036853;28;20516;-74
2022/03/06 13:58:02;;;;;;;40.35;21.38;;;12.10;44.60;;;;;;5036105;28;20099;-74
2022/03/06 14:00:32;;;;;;;37.60;20.40;;;12.10;43.50;;;;;;5022173;28;20030;-74
2022/03/06 14:03:03;;;;;;;40.17;22.83;;;12.10;44.30;;;;;;5017388;28;20022;-74
2022/03/06 14:05:31;;;;;;;41.05;21.85;;;12.30;44.20;;;;;;5015902;28;20309;-75
2022/03/06 14:08:32;;;;;;;41.75;22.75;;;12.20;43.90;;;;;;5016935;28;20088;-74
2022/03/06 14:11:00;;;;;;;42.55;24.00;;;12.10;44.50;;;;;;5019953;28;20117;-74
2022/03/06 14:13:26;;;;;;;45.05;23.77;;;11.90;45.70;;;;;;5030157;28;20484;-74
2022/03/06 14:15:53;;;;;;;46.63;24.83;;;12.00;45.70;;;;;;5048825;28;20026;-74
2022/03/06 14:18:52;;;;;;;45.38;24.63;;;12.20;45.30;;;;;;5017004;28;20029;-74
2022/03/06 14:21:20;;;;;;;46.90;24.33;;;12.10;45.50;;;;;;5011503;28;20416;-74
2022/03/06 14:23:51;;;;;;;64.20;35.10;;;12.00;45.40;;;;;;5033771;28;20031;-74
2022/03/06 14:26:25;;;;;;;39.45;23.15;;;12.00;46.00;;;;;;5056444;28;20029;-74
2022/03/06 14:28:55;;;;;;;52.15;28.30;;;11.90;45.50;;;;;;5017405;28;20112;-74
2022/03/06 14:31:21;;;;;;;47.97;25.02;;;11.80;46.20;;;;;;5016786;28;20050;-74
2022/03/06 14:33:48;;;;;;;42.15;23.80;;;11.90;46.30;;;;;;5026136;28;20040;-74
2022/03/06 14:36:15;;;;;;;51.65;26.35;;;12.00;46.10;;;;;;5036402;28;20030;-74
2022/03/06 14:38:41;;;;;;;52.20;26.73;;;12.00;45.50;;;;;;5036436;28;20029;-74
2022/03/06 14:41:08;;;;;;;48.15;26.83;;;11.90;46.10;;;;;;5036077;28;20021;-74
2022/03/06 14:43:35;;;;;;;42.75;24.05;;;11.80;46.60;;;;;;5027379;28;20029;-74
2022/03/06 14:46:03;;;;;;;42.58;24.77;;;11.90;45.80;;;;;;5015330;28;20033;-75
2022/03/06 14:48:29;;;;;;;47.00;25.20;;;12.00;46.00;;;;;;5016804;28;20030;-74
2022/03/06 14:50:54;;;;;;;47.00;26.08;;;12.10;46.10;;;;;;5016428;28;20065;-74
2022/03/06 14:53:20;;;;;;;49.00;27.85;;;12.00;46.20;;;;;;5029869;28;20033;-74
2022/03/06 14:55:46;;;;;;;53.35;26.23;;;11.80;46.00;;;;;;5016046;28;20034;-74
2022/03/06 14:58:12;;;;;;;48.72;26.98;;;11.70;45.40;;;;;;5018633;28;20032;-74
2022/03/06 15:00:38;;;;;;;52.95;29.08;;;11.80;45.80;;;;;;5035914;28;20072;-74
2022/03/06 15:03:04;;;;;;;50.22;26.45;;;11.90;45.20;;;;;;5035676;28;20025;-74
2022/03/06 15:05:30;;;;;;;45.80;24.52;;;11.90;45.10;;;;;;5035890;28;20035;-74
2022/03/06 15:07:56;;;;;;;45.42;23.27;;;11.90;44.40;;;;;;5025685;28;20038;-74
2022/03/06 15:10:22;;;;;;;47.92;24.92;;;11.90;44.10;;;;;;5015937;28;20033;-74
2022/03/06 15:12:47;;;;;;;43.40;23.98;;;11.70;45.00;;;;;;5035478;28;20090;-74
2022/03/06 15:15:13;;;;;;;54.22;29.73;;;11.80;45.40;;;;;;5034182;28;20028;-74
2022/03/06 15:17:39;;;;;;;59.92;30.70;;;11.50;45.30;;;;;;5019194;28;20037;-74
2022/03/06 15:20:05;;;;;;;50.10;25.77;;;11.10;45.20;;;;;;5015971;28;20029;-74
2022/03/06 15:22:31;;;;;;;40.67;20.63;;;11.10;46.20;;;;;;5016035;28;20036;-75
2022/03/06 15:24:57;;;;;;;41.15;22.90;;;10.90;45.90;;;;;;5037278;28;20030;-74
2022/03/06 15:27:23;;;;;;;48.97;27.15;;;11.20;45.90;;;;;;5035663;28;20484;-75
2022/03/06 15:29:49;;;;;;;40.20;20.63;;;11.40;46.50;;;;;;5035583;28;20095;-74
2022/03/06 15:32:14;;;;;;;38.00;20.48;;;11.80;46.00;;;;;;5035272;28;20041;-74
2022/03/06 15:34:40;;;;;;;35.38;20.02;;;12.00;44.20;;;;;;5021740;28;20038;-74
2022/03/06 15:37:06;;;;;;;36.75;20.48;;;11.70;43.10;;;;;;5015815;28;20037;-74
2022/03/06 15:39:32;;;;;;;41.42;20.52;;;11.60;43.80;;;;;;5015618;28;20017;-74
2022/03/06 15:41:58;;;;;;;38.05;20.35;;;11.30;44.10;;;;;;5029055;28;20100;-74
2022/03/06 15:44:24;;;;;;;50.65;25.02;;;11.50;44.90;;;;;;5033947;28;20087;-74
2022/03/06 15:46:50;;;;;;;51.38;26.20;;;11.50;44.80;;;;;;5035480;28;20035;-74
2022/03/06 15:49:15;;;;;;;46.60;25.75;;;11.50;44.50;;;;;;5029844;28;20030;-74
2022/03/06 15:51:41;;;;;;;47.08;24.75;;;11.10;43.60;;;;;;5014215;28;20038;-74
2022/03/06 15:54:07;;;;;;;43.53;23.42;;;11.20;45.10;;;;;;5034946;28;20072;-74
2022/03/06 15:56:32;;;;;;;37.53;20.85;;;11.20;44.30;;;;;;5028275;28;20041;-74
2022/03/06 15:58:58;;;;;;;37.35;20.77;;;11.10;44.10;;;;;;5015603;28;20028;-74
2022/03/06 16:01:24;;;;;;;37.42;20.70;;;10.90;43.70;;;;;;5027067;28;20120;-74
2022/03/06 16:03:49;;;;;;;35.47;18.90;;;10.80;44.00;;;;;;5033939;28;20391;-74
2022/03/06 16:06:16;;;;;;;36.47;18.98;;;10.80;43.80;;;;;;5033292;28;20450;-74
2022/03/06 16:08:42;;;;;;;38.85;17.15;;;10.80;44.60;;;;;;5015574;28;20022;-74
2022/03/06 16:11:10;;;;;;;35.08;18.25;;;11.00;44.30;;;;;;5052677;28;20032;-74
2022/03/06 16:13:36;;;;;;;39.92;18.23;;;11.10;43.50;;;;;;5035063;28;20017;-74
2022/03/06 16:16:02;;;;;;;38.38;18.13;;;11.10;43.20;;;;;;5036549;28;20067;-74
2022/03/06 16:18:28;;;;;;;29.55;16.38;;;11.00;43.30;;;;;;5037740;28;20021;-74
2022/03/06 16:20:54;;;;;;;36.03;17.13;;;11.10;43.50;;;;;;5025799;28;20025;-74
2022/03/06 16:23:19;;;;;;;33.47;15.27;;;11.20;42.90;;;;;;5029097;28;20029;-74
2022/03/06 16:25:45;;;;;;;31.83;16.30;;;11.20;42.90;;;;;;5038412;28;20034;-74
2022/03/06 16:28:11;;;;;;;30.35;17.20;;;11.00;42.60;;;;;;5017824;28;20663;-74
2022/03/06 16:30:37;;;;;;;29.40;14.93;;;10.90;42.90;;;;;;5018887;28;20108;-74
2022/03/06 16:33:03;;;;;;;30.92;16.42;;;11.00;42.90;;;;;;5019062;28;20038;-75
2022/03/06 16:35:29;;;;;;;27.33;14.52;;;10.90;42.10;;;;;;5018787;28;20033;-74
2022/03/06 16:37:54;;;;;;;24.60;14.10;;;10.80;42.10;;;;;;5018892;28;20038;-74
2022/03/06 16:40:20;;;;;;;28.90;14.40;;;10.70;42.40;;;;;;5018726;28;20057;-74
2022/03/06 16:42:46;;;;;;;28.33;15.52;;;10.70;41.80;;;;;;5019758;28;20037;-74
2022/03/06 16:45:12;;;;;;;32.30;15.60;;;10.60;42.70;;;;;;5034060;28;20060;-74
2022/03/06 16:47:38;;;;;;;23.50;14.70;;;10.80;43.00;;;;;;5037211;28;20136;-74
2022/03/06 16:50:05;;;;;;;24.25;13.95;;;10.80;42.30;;;;;;5036005;28;20057;-74
2022/03/06 16:52:30;;;;;;;26.98;13.82;;;10.80;43.70;;;;;;5018738;28;20034;-74
2022/03/06 16:54:56;;;;;;;29.25;15.63;;;10.80;42.80;;;;;;5018177;28;20053;-74
2022/03/06 16:57:22;;;;;;;28.60;14.70;;;10.80;42.80;;;;;;5018456;28;20081;-74
2022/03/06 16:59:47;;;;;;;25.77;14.57;;;10.90;42.70;;;;;;5018490;28;20056;-72
2022/03/06 17:02:13;;;;;;;27.65;15.40;;;10.90;43.50;;;;;;5028235;28;20079;-75
2022/03/06 17:04:39;;;;;;;28.25;14.98;;;10.80;43.10;;;;;;5034461;28;20029;-75
2022/03/06 17:07:06;;;;;;;31.10;15.00;;;10.40;42.60;;;;;;5033201;28;20088;-75
2022/03/06 17:09:32;;;;;;;28.92;14.30;;;10.50;43.50;;;;;;5037489;28;20109;-75
2022/03/06 17:11:58;;;;;;;24.30;13.70;;;10.40;43.90;;;;;;5037655;28;20089;-75
2022/03/06 17:14:23;;;;;;;27.08;15.43;;;10.20;43.80;;;;;;5037855;28;20478;-75
2022/03/06 17:16:52;;;;;;;30.08;15.23;;;10.10;44.10;;;;;;5049655;28;20028;-75
2022/03/06 17:19:18;;;;;;;34.95;15.43;;;10.00;44.00;;;;;;5050674;28;20028;-75
2022/03/06 17:21:44;;;;;;;27.83;14.57;;;9.90;45.30;;;;;;5048697;28;20049;-75
2022/03/06 17:24:10;;;;;;;28.63;15.02;;;9.80;45.30;;;;;;5038469;28;20088;-74
2022/03/06 17:26:35;;;;;;;49.38;24.63;;;9.90;45.20;;;;;;5036704;28;20582;-75
2022/03/06 17:29:02;;;;;;;46.67;24.92;;;9.70;45.10;;;;;;5035813;28;20024;-75
2022/03/06 17:31:29;;;;;;;44.03;22.88;;;9.70;45.00;;;;;;5047902;28;20399;-75
2022/03/06 17:33:55;;;;;;;46.90;24.85;;;9.70;45.50;;;;;;5041775;28;20168;-75
2022/03/06 17:36:21;;;;;;;39.55;21.45;;;9.50;45.70;;;;;;5039518;28;20029;-75
2022/03/06 17:38:50;;;;;;;47.45;24.25;;;9.60;46.00;;;;;;5033945;28;20040;-75
2022/03/06 17:41:16;;;;;;;51.45;25.85;;;9.60;45.90;;;;;;5028558;28;20022;-75
2022/03/06 17:43:48;;;;;;;35.97;19.90;;;9.30;46.20;;;;;;5020499;28;20022;-75
2022/03/06 17:46:18;;;;;;;34.13;18.45;;;9.30;46.80;;;;;;5020105;28;20018;-75
2022/03/06 17:48:44;;;;;;;28.77;17.65;;;9.10;47.10;;;;;;5012134;28;20022;-75
2022/03/06 17:51:10;;;;;;;33.28;17.48;;;9.10;47.40;;;;;;5003250;28;20065;-75
2022/03/06 17:53:36;;;;;;;37.60;19.05;;;9.00;47.50;;;;;;5013090;28;20034;-74
2022/03/06 17:56:02;;;;;;;44.58;20.65;;;9.00;47.80;;;;;;5008103;28;20076;-75
2022/03/06 17:58:28;;;;;;;34.45;17.85;;;8.90;48.00;;;;;;5009606;28;20037;-74
2022/03/06 18:00:55;;;;;;;44.92;21.33;;;8.80;48.60;;;;;;5002495;28;20026;-74
2022/03/06 18:03:22;;;;;;;44.20;22.95;;;8.80;49.20;;;;;;5003248;28;20476;-74
2022/03/06 18:05:48;;;;;;;34.92;20.13;;;8.80;49.50;;;;;;5011389;28;20073;-80
2022/03/06 18:08:14;;;;;;;35.15;18.70;;;8.70;49.60;;;;;;5007669;28;20018;-73
2022/03/06 18:10:40;;;;;;;35.00;18.77;;;8.60;50.00;;;;;;5007344;28;21136;-76
2022/03/06 18:13:06;;;;;;;37.58;19.17;;;8.50;50.40;;;;;;5003434;28;20026;-75
2022/03/06 18:15:36;;;;;;;39.30;20.23;;;8.50;50.40;;;;;;5023932;28;20045;-78
2022/03/06 18:18:04;;;;;;;40.78;21.02;;;8.60;50.60;;;;;;5013175;28;20062;-77
2022/03/06 18:20:31;;;;;;;39.30;21.05;;;8.50;50.50;;;;;;5009845;28;20058;-76
2022/03/06 18:22:58;;;;;;;37.25;21.52;;;8.60;50.60;;;;;;5010428;28;20449;-76
2022/03/06 18:25:25;;;;;;;36.25;20.90;;;8.40;51.20;;;;;;5012011;28;20037;-76
2022/03/06 18:27:51;;;;;;;38.95;21.67;;;8.50;51.30;;;;;;5009048;28;20664;-76
2022/03/06 18:30:18;;;;;;;40.33;21.90;;;8.50;51.00;;;;;;5010132;28;20025;-75
2022/03/06 18:32:44;;;;;;;38.10;20.05;;;8.40;51.20;;;;;;5003745;28;20057;-75
2022/03/06 18:35:10;;;;;;;43.65;23.77;;;8.30;51.30;;;;;;5031361;28;20523;-75
2022/03/06 18:37:36;;;;;;;72.43;32.83;;;8.20;51.40;;;;;;5002736;28;20111;-78
2022/03/06 18:40:04;;;;;;;57.53;28.80;;;8.20;52.10;;;;;;5002268;28;20076;-77
2022/03/06 18:42:30;;;;;;;47.45;24.40;;;8.20;51.90;;;;;;5003636;28;20079;-78
2022/03/06 18:44:56;;;;;;;48.40;24.05;;;8.00;52.20;;;;;;4998144;28;20030;-77
2022/03/06 18:47:22;;;;;;;43.50;23.80;;;7.90;52.60;;;;;;5003724;28;20018;-77
2022/03/06 18:49:48;;;;;;;45.55;22.45;;;7.80;53.00;;;;;;5000084;28;20045;-75
2022/03/06 18:52:13;;;;;;;47.45;24.80;;;7.80;53.20;;;;;;5037698;28;20396;-76
2022/03/06 18:54:39;;;;;;;46.42;25.23;;;7.70;53.50;;;;;;5008802;28;20053;-79
2022/03/06 18:57:05;;;;;;;38.55;21.95;;;7.80;53.50;;;;;;5005545;28;20022;-80
2022/03/06 18:59:30;;;;;;;41.70;23.38;;;7.80;53.30;;;;;;5006638;28;20382;-81
2022/03/06 19:01:56;;;;;;;39.72;22.05;;;7.80;53.30;;;;;;5006869;28;20523;-82
2022/03/06 19:04:22;;;;;;;44.03;23.33;;;7.80;53.30;;;;;;5008583;28;20060;-79
2022/03/06 19:06:49;;;;;;;40.75;23.00;;;7.80;53.60;;;;;;5003735;28;20038;-81
2022/03/06 19:09:17;;;;;;;39.92;22.30;;;7.70;54.20;;;;;;5006228;28;20037;-81
2022/03/06 19:11:43;;;;;;;41.83;22.13;;;7.50;54.80;;;;;;5004910;28;20030;-84
2022/03/06 19:14:10;;;;;;;44.28;21.33;;;7.60;54.40;;;;;;4997825;28;20038;-83
2022/03/06 19:16:39;;;;;;;44.63;23.45;;;7.60;54.20;;;;;;5009007;28;20032;-81
2022/03/06 19:19:06;;;;;;;45.38;21.83;;;7.60;54.10;;;;;;5006255;28;20068;-80
2022/03/06 19:21:32;;;;;;;38.42;21.90;;;7.50;54.10;;;;;;5006754;28;20041;-80
2022/03/06 19:23:58;;;;;;;40.15;22.50;;;7.20;54.40;;;;;;5012194;28;20085;-79
2022/03/06 19:26:24;;;;;;;38.83;21.45;;;7.10;54.90;;;;;;5002018;28;20622;-78
2022/03/06 19:28:50;;;;;;;39.03;21.70;;;7.10;55.00;;;;;;5004605;28;20034;-83
2022/03/06 19:31:16;;;;;;;36.83;22.38;;;7.20;54.90;;;;;;5006754;28;20039;-76
2022/03/06 19:33:44;;;;;;;41.03;20.92;;;7.20;54.90;;;;;;5031702;28;20121;-77
2022/03/06 19:36:09;;;;;;;38.55;20.80;;;7.30;54.70;;;;;;5042587;28;20068;-81
2022/03/06 19:38:35;;;;;;;40.83;21.27;;;7.30;54.70;;;;;;5009037;28;20030;-79
2022/03/06 19:41:02;;;;;;;41.60;22.58;;;7.40;54.60;;;;;;5011063;28;20028;-78
2022/03/06 19:43:28;;;;;;;46.13;22.75;;;7.30;54.30;;;;;;5001755;28;20025;-77
2022/03/06 19:45:54;;;;;;;42.08;21.73;;;7.20;54.80;;;;;;5003904;28;20452;-75
2022/03/06 19:48:22;;;;;;;41.58;22.25;;;7.20;54.90;;;;;;5018982;28;20026;-77
2022/03/06 19:50:48;;;;;;;44.13;22.23;;;7.10;55.10;;;;;;5005836;28;20032;-74
2022/03/06 19:53:15;;;;;;;39.72;22.00;;;7.20;55.60;;;;;;5013653;28;20026;-74
2022/03/06 19:55:41;;;;;;;37.38;20.45;;;6.90;56.10;;;;;;5016711;28;20037;-75